Time;durP1;ratioP1;P1;durP2;ratioP2;P2;SDS_P1;SDS_P2;PMS_P1;PMS_P2;Temp;Humidity;BMP_temperature;BMP_pressure;BME280_temperature;BME280_humidity;BME280_pressure;Samples;Min_cycle;Max_cycle;Signal;HPM_P1;HPM_P2
2023/01/02 00:00:50;;;;;;;27.00;15.23;;;10.30;99.90;;;;;;4957881;28;20046;-80
2023/01/02 00:03:15;;;;;;;39.05;16.90;;;10.30;99.90;;;;;;4979096;28;20042;-79
2023/01/02 00:05:41;;;;;;;35.85;15.45;;;10.30;99.90;;;;;;4973907;28;20056;-79
2023/01/02 00:08:07;;;;;;;31.15;15.52;;;10.30;99.90;;;;;;4973697;28;20628;-79
2023/01/02 00:10:33;;;;;;;33.97;15.73;;;10.30;99.90;;;;;;4989897;28;20141;-79
2023/01/02 00:12:58;;;;;;;27.15;15.25;;;10.30;99.90;;;;;;4975056;28;20046;-79
2023/01/02 00:15:24;;;;;;;28.70;15.88;;;10.30;99.90;;;;;;4982004;28;20104;-79
2023/01/02 00:17:50;;;;;;;39.88;18.20;;;10.30;99.90;;;;;;4973164;28;20054;-80
2023/01/02 00:20:15;;;;;;;30.92;16.55;;;10.30;99.90;;;;;;4989845;28;20486;-79
2023/01/02 00:22:41;;;;;;;39.92;17.63;;;10.40;99.90;;;;;;4976826;28;20120;-81
2023/01/02 00:25:07;;;;;;;38.30;17.98;;;10.30;99.90;;;;;;4961036;28;20131;-79
2023/01/02 00:27:33;;;;;;;42.70;19.63;;;10.40;99.90;;;;;;4989631;28;20058;-84
2023/01/02 00:29:58;;;;;;;40.83;19.73;;;10.40;99.90;;;;;;4970918;28;20046;-83
2023/01/02 00:32:24;;;;;;;47.83;20.63;;;10.40;99.90;;;;;;4954605;28;20094;-78
2023/01/02 00:34:50;;;;;;;43.88;21.38;;;10.40;99.90;;;;;;4973830;28;20126;-82
2023/01/02 00:37:16;;;;;;;43.03;20.60;;;10.40;99.90;;;;;;4993254;28;20462;-78
2023/01/02 00:39:41;;;;;;;47.53;21.23;;;10.40;99.90;;;;;;4989493;28;20133;-85
2023/01/02 00:42:07;;;;;;;43.85;22.17;;;10.40;99.90;;;;;;4960680;28;20042;-78
2023/01/02 00:44:32;;;;;;;48.03;23.27;;;10.40;99.90;;;;;;4981137;28;20097;-79
2023/01/02 00:46:58;;;;;;;59.50;27.15;;;10.40;99.90;;;;;;4989766;28;20133;-79
2023/01/02 00:49:24;;;;;;;66.15;28.48;;;10.40;99.90;;;;;;4974027;28;20215;-82
2023/01/02 00:51:50;;;;;;;59.03;27.55;;;10.40;99.90;;;;;;4995740;28;20448;-78
2023/01/02 00:54:15;;;;;;;58.15;27.92;;;10.40;99.90;;;;;;4964632;28;20042;-84
2023/01/02 00:56:41;;;;;;;54.90;28.75;;;10.40;99.90;;;;;;4982380;28;20064;-82
2023/01/02 00:59:07;;;;;;;62.28;29.77;;;10.40;99.90;;;;;;4977262;28;20373;-82
2023/01/02 01:01:32;;;;;;;63.67;30.10;;;10.50;99.90;;;;;;4980367;28;20068;-79
2023/01/02 01:03:59;;;;;;;70.68;33.00;;;10.50;99.90;;;;;;4983736;28;20046;-81
2023/01/02 01:06:24;;;;;;;78.63;34.55;;;10.50;99.90;;;;;;4977843;28;20054;-80
2023/01/02 01:08:50;;;;;;;70.75;34.25;;;10.50;99.90;;;;;;4971383;28;20113;-80
2023/01/02 01:11:16;;;;;;;77.80;33.80;;;10.50;99.90;;;;;;4980642;28;20399;-78
2023/01/02 01:13:43;;;;;;;79.63;35.75;;;10.50;99.90;;;;;;4982521;28;20050;-78
2023/01/02 01:16:14;;;;;;;81.78;36.72;;;10.50;99.90;;;;;;4984082;28;20365;-79
2023/01/02 01:18:41;;;;;;;89.15;38.42;;;10.50;99.90;;;;;;4996257;28;20108;-86
2023/01/02 01:21:07;;;;;;;99.68;38.95;;;10.50;99.90;;;;;;4995392;28;20045;-79
2023/01/02 01:23:33;;;;;;;96.93;39.97;;;10.50;99.90;;;;;;4995237;28;20045;-79
2023/01/02 01:26:06;;;;;;;81.22;36.65;;;10.60;99.90;;;;;;4995567;28;20042;-78
2023/01/02 01:28:32;;;;;;;69.38;32.58;;;10.60;99.90;;;;;;4996630;28;20395;-78
2023/01/02 01:31:03;;;;;;;81.18;34.30;;;10.60;99.90;;;;;;4996268;28;20108;-78
2023/01/02 01:33:30;;;;;;;75.93;33.53;;;10.60;99.90;;;;;;4979822;28;20479;-78
2023/01/02 01:36:04;;;;;;;92.10;36.95;;;10.60;99.90;;;;;;4995283;28;20046;-78
2023/01/02 01:38:31;;;;;;;80.45;35.67;;;10.60;99.90;;;;;;5012859;28;20046;-78
2023/01/02 01:40:56;;;;;;;75.45;33.95;;;10.60;99.90;;;;;;4963978;28;20145;-78
2023/01/02 01:43:45;;;;;;;84.50;36.33;;;10.70;99.90;;;;;;4996053;28;20137;-78
2023/01/02 01:46:34;;;;;;;76.15;33.67;;;10.70;99.90;;;;;;4995613;28;20045;-80
2023/01/02 01:49:13;;;;;;;70.45;30.75;;;10.70;99.90;;;;;;4995846;28;20041;-78
2023/01/02 01:52:05;;;;;;;61.95;28.95;;;10.70;99.90;;;;;;4996030;28;20046;-78
2023/01/02 01:54:36;;;;;;;80.25;33.90;;;10.70;99.90;;;;;;4984716;28;20142;-79
2023/01/02 01:57:10;;;;;;;62.80;29.80;;;10.70;99.90;;;;;;4979291;28;20077;-78
2023/01/02 01:59:36;;;;;;;57.45;28.60;;;10.70;99.90;;;;;;4996296;28;20525;-77
2023/01/02 02:02:02;;;;;;;55.67;26.27;;;10.70;99.90;;;;;;4994967;28;20054;-78
2023/01/02 02:04:28;;;;;;;57.95;28.15;;;10.70;99.90;;;;;;4995759;28;20072;-78
2023/01/02 02:06:53;;;;;;;56.13;25.67;;;10.70;99.90;;;;;;4963806;28;20492;-77
2023/01/02 02:09:41;;;;;;;47.80;24.52;;;10.80;99.90;;;;;;4979599;28;20092;-78
2023/01/02 02:12:07;;;;;;;46.78;23.85;;;10.80;99.90;;;;;;4992482;28;20058;-82
2023/01/02 02:14:33;;;;;;;45.25;24.42;;;10.70;99.90;;;;;;4973051;28;20064;-78
2023/01/02 02:17:17;;;;;;;45.55;22.98;;;10.80;99.90;;;;;;4972758;28;20056;-79
2023/01/02 02:20:18;;;;;;;44.08;23.45;;;10.80;99.90;;;;;;4979623;28;20052;-78
2023/01/02 02:23:07;;;;;;;46.22;22.73;;;10.80;99.90;;;;;;4947696;28;20061;-78
2023/01/02 02:25:55;;;;;;;47.92;22.55;;;10.80;99.90;;;;;;4932021;28;20457;-78
2023/01/02 02:28:26;;;;;;;48.05;22.70;;;10.80;99.90;;;;;;4968894;28;20053;-79
2023/01/02 02:30:56;;;;;;;46.38;22.40;;;10.80;99.90;;;;;;4982111;28;20392;-78
2023/01/02 02:33:51;;;;;;;41.85;20.00;;;10.90;99.90;;;;;;4978770;28;20052;-77
2023/01/02 02:36:39;;;;;;;45.67;20.83;;;10.90;99.90;;;;;;4900031;28;20147;-77
2023/01/02 02:39:26;;;;;;;40.90;19.73;;;10.90;99.90;;;;;;4991181;28;20047;-78
2023/01/02 02:42:15;;;;;;;47.42;21.45;;;10.90;99.90;;;;;;4987800;28;20054;-80
2023/01/02 02:44:47;;;;;;;49.58;22.45;;;10.90;99.90;;;;;;4974450;28;20039;-80
2023/01/02 02:47:25;;;;;;;45.95;21.50;;;10.90;99.90;;;;;;4987474;28;20050;-77
2023/01/02 02:50:02;;;;;;;40.60;18.90;;;10.90;99.90;;;;;;4991126;28;20050;-86
2023/01/02 02:52:48;;;;;;;37.17;19.00;;;10.90;99.90;;;;;;4995293;28;20058;-78
2023/01/02 02:55:24;;;;;;;36.47;18.08;;;10.90;99.90;;;;;;4982411;28;20498;-79
2023/01/02 02:57:51;;;;;;;39.30;20.67;;;10.90;99.90;;;;;;4982182;28;20459;-79
2023/01/02 03:00:21;;;;;;;46.30;19.63;;;10.90;99.90;;;;;;4978531;28;20104;-78
2023/01/02 03:02:47;;;;;;;44.08;19.80;;;10.90;99.90;;;;;;4981700;28;20588;-78
2023/01/02 03:05:20;;;;;;;37.72;18.95;;;10.90;99.90;;;;;;4994446;28;20073;-78
2023/01/02 03:08:00;;;;;;;36.13;19.15;;;10.90;99.90;;;;;;4990352;28;20046;-77
2023/01/02 03:10:48;;;;;;;49.00;21.77;;;10.90;99.90;;;;;;4984731;28;20199;-78
2023/01/02 03:13:16;;;;;;;45.95;20.73;;;10.90;99.90;;;;;;4983422;28;20034;-78
2023/01/02 03:16:00;;;;;;;46.35;20.48;;;10.90;99.90;;;;;;4975430;28;20127;-79
2023/01/02 03:18:40;;;;;;;37.22;18.13;;;10.90;99.90;;;;;;5005885;28;20763;-78
2023/01/02 03:21:11;;;;;;;35.65;17.48;;;10.90;99.90;;;;;;4991101;28;20046;-79
2023/01/02 03:23:48;;;;;;;39.47;18.50;;;10.90;99.90;;;;;;4993349;28;20054;-80
2023/01/02 03:26:19;;;;;;;33.25;15.15;;;10.90;99.90;;;;;;4983084;28;20387;-78
2023/01/02 03:28:48;;;;;;;41.20;17.40;;;10.90;99.90;;;;;;4993660;28;20073;-78
2023/01/02 03:31:17;;;;;;;32.72;17.35;;;10.90;99.90;;;;;;4977301;28;20569;-78
2023/01/02 03:33:50;;;;;;;39.50;17.65;;;10.90;99.90;;;;;;4993450;28;20038;-80
2023/01/02 03:36:26;;;;;;;38.72;17.67;;;11.00;99.90;;;;;;4993981;28;20041;-77
2023/01/02 03:39:17;;;;;;;37.05;16.85;;;11.00;99.90;;;;;;4980991;28;20052;-78
2023/01/02 03:42:02;;;;;;;36.03;16.80;;;11.00;99.90;;;;;;5011586;28;20046;-78
2023/01/02 03:44:35;;;;;;;36.72;17.15;;;11.00;99.90;;;;;;4974936;28;20062;-78
2023/01/02 03:47:25;;;;;;;35.28;17.23;;;11.00;99.90;;;;;;4974279;28;20053;-78
2023/01/02 03:49:53;;;;;;;32.35;16.10;;;11.10;99.90;;;;;;4995408;28;20050;-78
2023/01/02 03:52:19;;;;;;;35.65;17.00;;;11.10;99.90;;;;;;4989428;28;20038;-78
2023/01/02 03:54:46;;;;;;;34.15;17.20;;;11.10;99.90;;;;;;4978185;28;20046;-79
2023/01/02 03:57:29;;;;;;;32.65;16.52;;;11.10;99.90;;;;;;4958132;28;20104;-78
2023/01/02 04:00:14;;;;;;;31.92;17.13;;;11.10;99.90;;;;;;4980166;28;20043;-78
2023/01/02 04:02:52;;;;;;;41.65;16.83;;;11.10;99.90;;;;;;4995842;28;20046;-78
2023/01/02 04:05:38;;;;;;;34.53;17.27;;;11.10;99.90;;;;;;4997064;28;20452;-79
2023/01/02 04:08:19;;;;;;;47.30;18.80;;;11.10;99.90;;;;;;4990512;28;20038;-78
2023/01/02 04:10:49;;;;;;;43.08;18.20;;;11.10;99.90;;;;;;4982801;28;20050;-78
2023/01/02 04:13:19;;;;;;;41.85;18.45;;;11.10;99.90;;;;;;5005199;28;20045;-80
2023/01/02 04:15:47;;;;;;;49.88;20.95;;;11.10;99.90;;;;;;4994042;28;20056;-78
2023/01/02 04:18:16;;;;;;;36.92;19.33;;;11.10;99.90;;;;;;4979722;28;20130;-78
2023/01/02 04:20:46;;;;;;;45.30;20.88;;;11.10;99.90;;;;;;5013018;28;20057;-78
2023/01/02 04:23:39;;;;;;;37.33;18.35;;;11.10;99.90;;;;;;4992560;28;20050;-78
2023/01/02 04:26:11;;;;;;;41.88;18.88;;;11.10;99.90;;;;;;4964532;28;20061;-78
2023/01/02 04:28:37;;;;;;;42.65;20.70;;;11.10;99.90;;;;;;4996786;28;20522;-77
2023/01/02 04:31:14;;;;;;;46.85;20.40;;;11.10;99.90;;;;;;4997151;28;20118;-82
2023/01/02 04:33:47;;;;;;;39.58;17.38;;;11.10;99.90;;;;;;4975144;28;20053;-78
2023/01/02 04:36:14;;;;;;;42.45;19.48;;;11.10;99.90;;;;;;4970505;28;20073;-79
2023/01/02 04:38:41;;;;;;;38.50;19.02;;;11.10;99.90;;;;;;5014470;28;20054;-78
2023/01/02 04:41:08;;;;;;;45.38;19.52;;;11.10;99.90;;;;;;4996684;28;20103;-80
2023/01/02 04:43:33;;;;;;;40.17;19.35;;;11.10;99.90;;;;;;4978246;28;20129;-77
2023/01/02 04:45:59;;;;;;;40.80;19.13;;;11.20;99.90;;;;;;4990005;28;20140;-79
2023/01/02 04:48:25;;;;;;;45.40;21.20;;;11.10;99.90;;;;;;4977050;28;20112;-79
2023/01/02 04:50:53;;;;;;;49.80;20.85;;;11.20;99.90;;;;;;4974371;28;20048;-81
2023/01/02 04:53:19;;;;;;;43.05;19.75;;;11.20;99.90;;;;;;4996654;28;20053;-78
2023/01/02 04:55:45;;;;;;;40.33;18.38;;;11.20;99.90;;;;;;4976429;28;20053;-82
2023/01/02 04:58:11;;;;;;;34.67;18.38;;;11.10;99.90;;;;;;4944417;28;20146;-78
2023/01/02 05:00:36;;;;;;;44.10;20.23;;;11.20;99.90;;;;;;4989637;28;20069;-86
2023/01/02 05:03:03;;;;;;;31.45;17.77;;;11.20;99.90;;;;;;5011944;28;20545;-79
2023/01/02 05:05:29;;;;;;;35.97;18.77;;;11.20;99.90;;;;;;4995889;28;20491;-82
2023/01/02 05:07:56;;;;;;;39.60;18.23;;;11.20;99.90;;;;;;4980134;28;20050;-77
2023/01/02 05:10:21;;;;;;;41.70;19.85;;;11.20;99.90;;;;;;4979212;28;20086;-78
2023/01/02 05:12:47;;;;;;;34.83;17.98;;;11.30;99.90;;;;;;4961126;28;20483;-78
2023/01/02 05:15:13;;;;;;;37.67;18.10;;;11.30;99.90;;;;;;4976602;28;20050;-79
2023/01/02 05:17:40;;;;;;;39.30;17.80;;;11.30;99.90;;;;;;4974420;28;20046;-79
2023/01/02 05:20:09;;;;;;;36.30;18.02;;;11.30;99.90;;;;;;4978050;28;20061;-78
2023/01/02 05:25:20;;;;;;;39.97;17.48;;;11.40;99.90;;;;;;5006938;28;20103;-78
2023/01/02 05:27:46;;;;;;;40.15;18.35;;;11.40;99.90;;;;;;4979804;28;20392;-80
2023/01/02 05:30:12;;;;;;;34.10;17.60;;;11.40;99.90;;;;;;4959883;28;20452;-84
2023/01/02 05:32:37;;;;;;;40.70;16.38;;;11.40;99.90;;;;;;4960918;28;20054;-77
2023/01/02 05:35:03;;;;;;;33.78;16.95;;;11.40;99.90;;;;;;4979193;28;20065;-78
2023/01/02 05:37:29;;;;;;;43.75;17.58;;;11.40;99.90;;;;;;4976237;28;20039;-79
2023/01/02 05:39:55;;;;;;;29.67;17.23;;;11.40;99.90;;;;;;4973104;28;20450;-78
2023/01/02 05:42:20;;;;;;;29.65;15.35;;;11.40;99.90;;;;;;4944796;28;20105;-79
2023/01/02 05:44:46;;;;;;;36.13;17.55;;;11.40;99.90;;;;;;4960314;28;20529;-79
2023/01/02 05:47:12;;;;;;;38.92;18.42;;;11.40;99.90;;;;;;4995345;28;20494;-85
2023/01/02 05:49:37;;;;;;;42.25;18.77;;;11.50;99.90;;;;;;4992249;28;20054;-78
2023/01/02 05:52:03;;;;;;;45.08;19.05;;;11.50;99.90;;;;;;4961637;28;20053;-79
2023/01/02 05:54:29;;;;;;;34.10;16.55;;;11.50;99.90;;;;;;4965181;28;20052;-80
2023/01/02 05:56:55;;;;;;;41.08;17.80;;;11.50;99.90;;;;;;4978395;28;20136;-78
2023/01/02 05:59:21;;;;;;;39.42;17.95;;;11.50;99.90;;;;;;5011512;28;20220;-78
2023/01/02 06:01:47;;;;;;;40.20;17.13;;;11.50;99.90;;;;;;4994748;28;20133;-79
2023/01/02 06:04:12;;;;;;;28.33;15.90;;;11.50;99.90;;;;;;4994244;28;20038;-80
2023/01/02 06:06:39;;;;;;;32.78;17.27;;;11.50;99.90;;;;;;5002941;28;20046;-80
2023/01/02 06:09:07;;;;;;;41.70;18.08;;;11.50;99.90;;;;;;4978506;28;20042;-78
2023/01/02 06:11:33;;;;;;;34.83;15.18;;;11.50;99.90;;;;;;4982696;28;20061;-78
2023/01/02 06:13:59;;;;;;;37.22;16.27;;;11.50;99.90;;;;;;4988249;28;20050;-79
2023/01/02 06:16:25;;;;;;;36.22;18.38;;;11.50;99.90;;;;;;4974858;28;20057;-78
2023/01/02 06:18:51;;;;;;;33.33;15.50;;;11.60;99.90;;;;;;4975011;28;20053;-81
2023/01/02 06:21:19;;;;;;;28.05;15.15;;;11.60;99.90;;;;;;4982785;28;20042;-82
2023/01/02 06:23:45;;;;;;;43.78;18.73;;;11.60;99.90;;;;;;4992797;28;20566;-81
2023/01/02 06:26:18;;;;;;;35.47;17.35;;;11.60;99.90;;;;;;4994587;28;20046;-79
2023/01/02 06:28:44;;;;;;;36.95;18.05;;;11.60;99.90;;;;;;4973566;28;20121;-79
2023/01/02 06:31:13;;;;;;;32.58;14.38;;;11.60;99.90;;;;;;4974904;28;20499;-80
2023/01/02 06:33:39;;;;;;;35.88;17.27;;;11.60;99.90;;;;;;4975695;28;20042;-79
2023/01/02 06:36:13;;;;;;;36.40;18.23;;;11.60;99.90;;;;;;4978375;28;20062;-79
2023/01/02 06:38:39;;;;;;;30.05;15.75;;;11.60;99.90;;;;;;4981496;28;20581;-80
2023/01/02 06:41:06;;;;;;;33.42;16.38;;;11.60;99.90;;;;;;4978589;28;20124;-79
2023/01/02 06:43:35;;;;;;;34.60;16.70;;;11.60;99.90;;;;;;4971960;28;20081;-80
2023/01/02 06:46:03;;;;;;;35.90;17.20;;;11.60;99.90;;;;;;4975016;28;20444;-79
2023/01/02 06:48:31;;;;;;;34.58;17.33;;;11.50;99.90;;;;;;4999844;28;20053;-78
2023/01/02 06:50:58;;;;;;;30.25;15.85;;;11.60;99.90;;;;;;4991453;28;20104;-79
2023/01/02 06:53:25;;;;;;;31.55;15.77;;;11.60;99.90;;;;;;4961654;28;20718;-78
2023/01/02 06:55:57;;;;;;;33.20;15.80;;;11.60;99.90;;;;;;4977594;28;20084;-79
2023/01/02 06:58:24;;;;;;;37.03;15.15;;;11.60;99.90;;;;;;4993300;28;20077;-84
2023/01/02 07:00:51;;;;;;;25.95;14.60;;;11.50;99.90;;;;;;4979348;28;20046;-79
2023/01/02 07:03:17;;;;;;;31.17;15.45;;;11.60;99.90;;;;;;4963240;28;20092;-79
2023/01/02 07:05:44;;;;;;;24.25;13.52;;;11.60;99.90;;;;;;4975040;28;20042;-79
2023/01/02 07:08:11;;;;;;;18.08;9.93;;;11.60;99.90;;;;;;4994120;28;20038;-80
2023/01/02 07:10:37;;;;;;;12.73;8.43;;;11.60;99.90;;;;;;4993288;28;20372;-79
2023/01/02 07:13:02;;;;;;;13.70;9.45;;;11.60;99.90;;;;;;4969559;28;20517;-79
2023/01/02 07:15:28;;;;;;;12.38;6.97;;;11.50;99.90;;;;;;4972931;28;20129;-78
2023/01/02 07:17:54;;;;;;;8.75;5.88;;;11.50;99.90;;;;;;4978066;28;20052;-78
2023/01/02 07:20:20;;;;;;;6.20;5.20;;;11.40;99.90;;;;;;4993753;28;20042;-80
2023/01/02 07:22:50;;;;;;;6.88;5.63;;;11.20;99.90;;;;;;4993704;28;20056;-79
2023/01/02 07:25:17;;;;;;;5.03;3.97;;;11.10;99.90;;;;;;5005369;28;20069;-80
2023/01/02 07:27:43;;;;;;;13.95;5.93;;;10.90;99.90;;;;;;4957551;28;20447;-79
2023/01/02 07:30:09;;;;;;;6.45;3.70;;;10.80;99.90;;;;;;4976071;28;20057;-80
2023/01/02 07:32:35;;;;;;;8.60;5.57;;;10.70;99.90;;;;;;4983568;28;20500;-79
2023/01/02 07:35:01;;;;;;;8.10;4.90;;;10.60;99.90;;;;;;4988856;28;20049;-80
2023/01/02 07:37:26;;;;;;;7.47;5.43;;;10.50;99.90;;;;;;4993558;28;20095;-84
2023/01/02 07:39:52;;;;;;;7.22;5.18;;;10.50;99.90;;;;;;4993680;28;20541;-78
2023/01/02 07:42:18;;;;;;;6.78;5.10;;;10.40;99.90;;;;;;4974489;28;20504;-79
2023/01/02 07:44:43;;;;;;;7.43;5.82;;;10.40;99.90;;;;;;4970716;28;20044;-78
2023/01/02 07:47:09;;;;;;;10.27;7.50;;;10.30;99.90;;;;;;4983436;28;20067;-78
2023/01/02 07:49:35;;;;;;;10.43;7.78;;;10.20;99.90;;;;;;4980930;28;20119;-78
2023/01/02 07:52:00;;;;;;;11.75;7.13;;;10.20;99.90;;;;;;4974437;28;20053;-81
2023/01/02 07:54:26;;;;;;;18.58;10.90;;;10.10;99.90;;;;;;4977416;28;20037;-78
2023/01/02 07:56:52;;;;;;;13.80;8.75;;;10.00;99.90;;;;;;4962584;28;20043;-79
2023/01/02 07:59:17;;;;;;;10.10;6.40;;;9.90;99.90;;;;;;4977397;28;20057;-78
2023/01/02 08:01:43;;;;;;;12.15;6.88;;;9.90;99.90;;;;;;4966563;28;20496;-78
2023/01/02 08:04:09;;;;;;;9.00;5.55;;;9.80;99.90;;;;;;4992989;28;20050;-78
2023/01/02 08:06:38;;;;;;;10.48;6.03;;;9.60;99.90;;;;;;4993216;28;20049;-79
2023/01/02 08:09:04;;;;;;;13.85;6.68;;;9.50;99.90;;;;;;4960794;28;20046;-78
2023/01/02 08:11:29;;;;;;;18.73;8.32;;;9.50;99.90;;;;;;4960738;28;20065;-79
2023/01/02 08:13:56;;;;;;;12.35;7.10;;;9.40;99.90;;;;;;4991811;28;20046;-78
2023/01/02 08:16:25;;;;;;;10.60;5.65;;;9.40;99.90;;;;;;4977097;28;20479;-79
2023/01/02 08:18:54;;;;;;;13.25;7.90;;;9.30;99.90;;;;;;4976983;28;20042;-79
2023/01/02 08:21:21;;;;;;;11.73;6.82;;;9.30;99.90;;;;;;4993135;28;20058;-78
2023/01/02 08:23:47;;;;;;;9.43;3.40;;;9.20;99.90;;;;;;4976397;28;20129;-78
2023/01/02 08:26:13;;;;;;;6.25;3.20;;;9.10;99.90;;;;;;4977182;28;20129;-78
2023/01/02 08:28:40;;;;;;;6.30;4.05;;;9.00;99.90;;;;;;4988702;28;20043;-78
2023/01/02 08:31:18;;;;;;;7.28;3.30;;;9.00;99.90;;;;;;4965578;28;20505;-78
2023/01/02 08:33:43;;;;;;;6.13;2.95;;;8.90;99.90;;;;;;4979422;28;20046;-77
2023/01/02 08:36:10;;;;;;;8.55;3.58;;;8.80;99.90;;;;;;4993450;28;20144;-79
2023/01/02 08:38:36;;;;;;;10.27;6.38;;;8.80;99.90;;;;;;4980268;28;20049;-84
2023/01/02 08:41:02;;;;;;;11.77;7.07;;;8.80;99.90;;;;;;4977015;28;20068;-79
2023/01/02 08:43:28;;;;;;;4.22;2.33;;;8.80;99.90;;;;;;4997744;28;20049;-78
2023/01/02 08:45:54;;;;;;;6.70;2.85;;;8.70;99.90;;;;;;4980381;28;20138;-78
2023/01/02 08:48:20;;;;;;;4.25;1.73;;;8.60;99.90;;;;;;4996813;28;20567;-78
2023/01/02 08:50:46;;;;;;;3.67;1.88;;;8.60;99.90;;;;;;4996724;28;20141;-78
2023/01/02 08:53:11;;;;;;;5.97;2.60;;;8.50;99.90;;;;;;4980246;28;20116;-79
2023/01/02 08:55:37;;;;;;;4.82;2.22;;;8.50;99.90;;;;;;4997157;28;20046;-83
2023/01/02 08:58:02;;;;;;;3.88;2.25;;;8.50;99.90;;;;;;4996790;28;20046;-78
2023/01/02 09:00:28;;;;;;;4.70;2.22;;;8.50;99.90;;;;;;4977513;28;20559;-78
2023/01/02 09:02:54;;;;;;;5.60;2.50;;;8.40;99.90;;;;;;4995602;28;20042;-78
2023/01/02 09:05:19;;;;;;;5.90;2.28;;;8.40;99.90;;;;;;4948359;28;20054;-79
2023/01/02 09:07:45;;;;;;;7.22;2.72;;;8.40;99.90;;;;;;4960579;28;20085;-78
2023/01/02 09:10:11;;;;;;;8.10;3.60;;;8.30;99.90;;;;;;4972539;28;20049;-77
2023/01/02 09:12:37;;;;;;;7.97;3.30;;;8.30;99.90;;;;;;4980515;28;20038;-78
2023/01/02 09:15:03;;;;;;;7.38;2.92;;;8.30;99.90;;;;;;5013885;28;20521;-78
2023/01/02 09:17:29;;;;;;;6.65;2.67;;;8.30;99.90;;;;;;4980414;28;20085;-78
2023/01/02 09:19:55;;;;;;;7.80;3.33;;;8.30;99.90;;;;;;4979758;28;20096;-78
2023/01/02 09:22:20;;;;;;;6.88;3.00;;;8.30;99.90;;;;;;4976591;28;20058;-78
2023/01/02 09:24:46;;;;;;;6.22;2.90;;;8.30;99.90;;;;;;4980277;28;20053;-78
2023/01/02 09:27:12;;;;;;;6.20;3.50;;;8.30;99.90;;;;;;4964567;28;20480;-78
2023/01/02 09:29:37;;;;;;;7.30;3.10;;;8.30;99.90;;;;;;4996485;28;20155;-78
2023/01/02 09:32:03;;;;;;;6.80;3.00;;;8.20;99.90;;;;;;4990208;28;20137;-78
2023/01/02 09:34:29;;;;;;;8.85;3.70;;;8.30;99.90;;;;;;5017240;28;20049;-78
2023/01/02 09:36:55;;;;;;;9.05;3.63;;;8.20;99.90;;;;;;4991215;28;20053;-78
2023/01/02 09:39:20;;;;;;;7.22;3.80;;;8.30;99.90;;;;;;4976215;28;20046;-82
2023/01/02 09:41:53;;;;;;;7.72;3.85;;;8.30;99.90;;;;;;4986574;28;20043;-78
2023/01/02 09:44:38;;;;;;;7.32;2.72;;;8.30;99.90;;;;;;4994637;28;20117;-78
2023/01/02 09:47:03;;;;;;;7.55;3.50;;;8.30;99.90;;;;;;4991206;28;20090;-78
2023/01/02 09:49:50;;;;;;;6.10;3.40;;;8.30;99.90;;;;;;4990384;28;20081;-78
2023/01/02 09:52:30;;;;;;;6.93;3.42;;;8.30;99.90;;;;;;4978433;28;20049;-79
2023/01/02 09:54:56;;;;;;;6.38;3.55;;;8.30;99.90;;;;;;4982386;28;20069;-78
2023/01/02 09:57:24;;;;;;;8.10;3.92;;;8.30;99.90;;;;;;4977938;28;20488;-80
2023/01/02 10:00:15;;;;;;;9.20;3.80;;;8.30;99.90;;;;;;4994747;28;20058;-79
2023/01/02 10:03:05;;;;;;;8.93;3.90;;;8.30;99.90;;;;;;4978738;28;20563;-78
2023/01/02 10:06:05;;;;;;;8.45;4.40;;;8.30;99.90;;;;;;4995667;28;20100;-79
2023/01/02 10:09:05;;;;;;;9.95;4.57;;;8.40;99.90;;;;;;4995862;28;20060;-80
2023/01/02 10:11:49;;;;;;;10.80;4.97;;;8.40;99.90;;;;;;4995391;28;20088;-82
2023/01/02 10:14:25;;;;;;;8.80;3.33;;;8.50;99.90;;;;;;5007624;28;20074;-79
2023/01/02 10:16:55;;;;;;;8.15;3.50;;;8.50;99.90;;;;;;4994119;28;20049;-80
2023/01/02 10:19:42;;;;;;;11.50;4.18;;;8.50;99.90;;;;;;4978162;28;20046;-81
2023/01/02 10:22:18;;;;;;;9.65;3.80;;;8.50;99.90;;;;;;4993903;28;20142;-78
2023/01/02 10:24:44;;;;;;;;;;;8.50;99.90;;;;;;5002114;28;20056;-80
2023/01/02 10:27:25;;;;;;;7.37;3.30;;;8.50;99.90;;;;;;4977398;28;19917;-78
2023/01/02 10:30:05;;;;;;;9.48;3.63;;;8.50;99.90;;;;;;4994064;28;20076;-84
2023/01/02 10:32:33;;;;;;;10.55;3.28;;;8.50;99.90;;;;;;4994767;28;20049;-79
2023/01/02 10:35:09;;;;;;;10.60;3.90;;;8.40;99.90;;;;;;4976571;28;20042;-78
2023/01/02 10:37:35;;;;;;;15.25;4.40;;;8.40;99.90;;;;;;4994363;28;20077;-78
2023/01/02 10:40:01;;;;;;;15.68;4.88;;;8.50;99.90;;;;;;4981204;28;20100;-79
2023/01/02 10:42:29;;;;;;;9.55;2.80;;;8.50;99.90;;;;;;5002515;28;20107;-79
2023/01/02 10:44:55;;;;;;;7.90;2.63;;;8.50;99.90;;;;;;4992400;28;20042;-78
2023/01/02 10:47:39;;;;;;;6.97;2.58;;;8.50;99.90;;;;;;4982147;28;20451;-78
2023/01/02 10:50:22;;;;;;;7.55;2.88;;;8.50;99.90;;;;;;4964478;28;20046;-79
2023/01/02 10:53:02;;;;;;;7.47;2.88;;;8.40;99.90;;;;;;4976558;28;20082;-78
2023/01/02 10:55:31;;;;;;;6.05;2.30;;;8.50;99.90;;;;;;4974281;28;20049;-78
2023/01/02 10:58:06;;;;;;;5.93;2.45;;;8.50;99.90;;;;;;4969228;28;20065;-78
2023/01/02 11:00:34;;;;;;;7.05;2.53;;;8.50;99.90;;;;;;4958133;28;20047;-78
2023/01/02 11:03:24;;;;;;;7.20;2.42;;;8.40;99.90;;;;;;4957820;28;20515;-80
2023/01/02 11:05:55;;;;;;;5.68;2.22;;;8.50;99.90;;;;;;4976861;28;20055;-81
2023/01/02 11:08:23;;;;;;;6.47;2.30;;;8.50;99.90;;;;;;4966751;28;20105;-79
2023/01/02 11:10:50;;;;;;;4.82;2.65;;;8.50;99.90;;;;;;4970216;28;20054;-78
2023/01/02 11:13:20;;;;;;;6.75;2.05;;;8.60;99.90;;;;;;4964860;28;20057;-78
2023/01/02 11:15:55;;;;;;;5.38;2.40;;;8.60;99.90;;;;;;4958097;28;20038;-78
2023/01/02 11:18:30;;;;;;;8.15;2.97;;;8.60;99.90;;;;;;4961447;28;20050;-79
2023/01/02 11:21:03;;;;;;;8.30;3.40;;;8.60;99.90;;;;;;4941772;28;20078;-86
2023/01/02 11:23:34;;;;;;;6.93;2.92;;;8.70;99.90;;;;;;4968241;28;20214;-79
2023/01/02 11:26:01;;;;;;;8.80;3.25;;;8.60;99.90;;;;;;4984521;28;20066;-78
2023/01/02 11:28:30;;;;;;;7.85;3.45;;;8.60;99.90;;;;;;4973833;28;20563;-78
2023/01/02 11:31:09;;;;;;;7.05;3.47;;;8.60;99.90;;;;;;4974280;28;20055;-78
2023/01/02 11:33:36;;;;;;;9.98;3.30;;;8.60;99.90;;;;;;4970795;28;20173;-79
2023/01/02 11:36:10;;;;;;;9.55;3.47;;;8.60;99.90;;;;;;4950220;28;20046;-78
2023/01/02 11:38:55;;;;;;;6.28;2.97;;;8.50;99.90;;;;;;4961495;28;20048;-79
2023/01/02 11:44:34;;;;;;;8.85;2.90;;;8.50;99.90;;;;;;4960632;28;20108;-79
2023/01/02 11:47:02;;;;;;;9.85;2.72;;;8.50;99.90;;;;;;4970185;28;20090;-86
2023/01/02 11:49:50;;;;;;;6.82;2.70;;;8.40;99.90;;;;;;4956607;28;20472;-78
2023/01/02 11:52:26;;;;;;;11.43;3.72;;;8.40;99.90;;;;;;4973875;28;20042;-80
2023/01/02 11:55:11;;;;;;;8.45;2.85;;;8.50;99.90;;;;;;4974579;28;20057;-78
2023/01/02 11:57:53;;;;;;;15.23;4.40;;;8.40;99.90;;;;;;4990932;28;20054;-79
2023/01/02 12:00:22;;;;;;;10.90;3.65;;;8.40;99.90;;;;;;4989734;28;20108;-78
2023/01/02 12:02:51;;;;;;;13.35;4.18;;;8.40;99.90;;;;;;4977775;28;20057;-78
2023/01/02 12:05:52;;;;;;;9.77;3.42;;;8.40;99.90;;;;;;4990448;28;20094;-78
2023/01/02 12:08:39;;;;;;;8.13;2.83;;;8.50;99.90;;;;;;4971004;28;20046;-78
2023/01/02 12:11:14;;;;;;;9.80;3.30;;;8.50;99.90;;;;;;4986665;28;20050;-82
2023/01/02 12:13:42;;;;;;;14.18;3.72;;;8.50;99.90;;;;;;4989436;28;20042;-79
2023/01/02 12:16:27;;;;;;;12.15;3.00;;;8.60;99.90;;;;;;4976072;28;20039;-78
2023/01/02 12:19:20;;;;;;;9.50;3.00;;;8.70;99.90;;;;;;4988994;28;20051;-78
2023/01/02 12:22:45;;;;;;;11.57;3.00;;;8.70;99.90;;;;;;4972208;28;20050;-80
2023/01/02 12:25:32;;;;;;;13.32;3.20;;;8.70;99.90;;;;;;4911317;29;20055;-79
2023/01/02 12:28:19;;;;;;;12.30;3.10;;;8.60;99.90;;;;;;4983324;28;20094;-78
2023/01/02 12:31:20;;;;;;;11.25;4.00;;;8.60;99.90;;;;;;4982618;28;20058;-79
2023/01/02 12:33:57;;;;;;;11.02;2.50;;;8.60;99.90;;;;;;4909362;28;20051;-78
2023/01/02 12:37:07;;;;;;;13.35;2.90;;;8.60;99.90;;;;;;4975443;28;20798;-78
2023/01/02 12:39:50;;;;;;;11.82;2.80;;;8.60;99.90;;;;;;4899888;29;20128;-78
2023/01/02 12:42:37;;;;;;;7.38;2.45;;;8.60;99.90;;;;;;4983335;28;20568;-78
2023/01/02 12:45:30;;;;;;;14.38;3.00;;;8.60;99.90;;;;;;4979869;28;20061;-79
2023/01/02 12:48:16;;;;;;;10.48;2.60;;;8.60;99.90;;;;;;4993343;28;20542;-79
2023/01/02 12:50:57;;;;;;;11.52;3.38;;;8.70;99.90;;;;;;4962309;28;20048;-79
2023/01/02 12:53:38;;;;;;;11.85;3.20;;;8.70;99.90;;;;;;4995727;28;20137;-78
2023/01/02 12:56:18;;;;;;;19.77;4.28;;;8.70;99.90;;;;;;4996696;28;20391;-80
2023/01/02 12:59:24;;;;;;;13.35;3.60;;;8.70;99.90;;;;;;4980580;28;20050;-78
2023/01/02 13:02:19;;;;;;;15.50;3.78;;;8.70;99.90;;;;;;4996641;28;20061;-80
2023/01/02 13:04:50;;;;;;;13.38;3.30;;;8.60;99.90;;;;;;4994875;28;20046;-81
2023/01/02 13:07:46;;;;;;;12.05;3.53;;;8.60;99.90;;;;;;4996700;28;20046;-79